createdAt,value
2022-10-01T00:01:00.387Z,3.47
2022-10-01T00:05:04.806Z,2.55
2022-10-01T00:09:07.680Z,3.60
2022-10-01T00:13:11.018Z,3.22
2022-10-01T00:17:13.831Z,3.72
2022-10-01T00:21:19.931Z,2.75
2022-10-01T00:25:22.819Z,3.08
2022-10-01T00:29:25.649Z,4.25
2022-10-01T00:33:28.342Z,2.88
2022-10-01T00:37:35.385Z,4.75
2022-10-01T00:41:38.675Z,1.08
2022-10-01T00:45:41.522Z,2.20
2022-10-01T00:49:46.686Z,4.30
2022-10-01T00:53:50.823Z,3.28
2022-10-01T00:57:55.464Z,1.63
2022-10-01T01:01:58.530Z,3.10
2022-10-01T01:06:01.374Z,1.45
2022-10-01T01:10:07.394Z,4.60
2022-10-01T01:14:18.684Z,3.47
2022-10-01T01:18:27.797Z,3.17
2022-10-01T01:22:35.895Z,2.58
2022-10-01T01:26:51.069Z,2.70
2022-10-01T01:31:01.329Z,1.77
2022-10-01T01:35:08.270Z,1.20
2022-10-01T01:39:15.450Z,2.75
2022-10-01T01:43:22.725Z,0.93
2022-10-01T01:47:33.612Z,3.10
2022-10-01T01:51:44.657Z,2.25
2022-10-01T01:55:49.513Z,2.65
2022-10-01T01:59:52.283Z,3.15
2022-10-01T02:03:56.926Z,3.20
2022-10-01T02:08:27.939Z,2.47
2022-10-01T02:12:43.372Z,2.58
2022-10-01T02:16:51.420Z,3.92
2022-10-01T02:21:03.878Z,1.98
2022-10-01T02:25:09.783Z,2.47
2022-10-01T02:29:17.526Z,2.88
2022-10-01T02:33:24.326Z,3.05
2022-10-01T02:37:29.586Z,3.47
2022-10-01T02:41:36.650Z,2.33
2022-10-01T02:45:42.138Z,1.40
2022-10-01T02:49:45.315Z,1.30
2022-10-01T02:53:54.080Z,2.10
2022-10-01T02:57:57.856Z,2.05
2022-10-01T03:02:00.844Z,1.40
2022-10-01T03:06:03.787Z,0.47
2022-10-01T03:10:09.678Z,3.50
2022-10-01T03:14:12.425Z,0.08
2022-10-01T03:18:15.116Z,0.50
2022-10-01T03:22:20.995Z,2.08
2022-10-01T03:26:25.245Z,0.47
2022-10-01T03:30:28.465Z,0.10
2022-10-01T03:34:31.327Z,0.20
2022-10-01T03:38:34.205Z,0.20
2022-10-01T03:42:38.381Z,1.00
2022-10-01T03:46:41.222Z,0.40
2022-10-01T03:50:43.936Z,0.20
2022-10-01T03:54:46.719Z,0.60
2022-10-01T03:58:51.250Z,0.20
2022-10-01T04:02:54.131Z,0.30
2022-10-01T04:06:56.917Z,0.10
2022-10-01T04:11:00.998Z,0.30
2022-10-01T04:15:05.554Z,0.38
2022-10-01T04:19:08.350Z,0.50
2022-10-01T04:23:11.066Z,0.10
2022-10-01T04:27:13.870Z,0.30
2022-10-01T04:31:27.093Z,0.30
2022-10-01T04:35:30.131Z,0.22
2022-10-01T04:39:32.858Z,0.00
2022-10-01T04:43:35.698Z,0.30
2022-10-01T04:47:40.122Z,0.00
2022-10-01T04:51:42.784Z,1.08
2022-10-01T04:55:46.569Z,0.10
2022-10-01T04:59:51.033Z,0.00
2022-10-01T05:03:55.306Z,0.00
2022-10-01T05:07:58.173Z,0.20
2022-10-01T05:12:01.608Z,0.00
2022-10-01T05:16:04.493Z,0.15
2022-10-01T05:20:11.964Z,0.10
2022-10-01T05:24:16.282Z,0.47
2022-10-01T05:28:22.406Z,0.00
2022-10-01T05:32:25.615Z,0.00
2022-10-01T05:36:29.830Z,0.10
2022-10-01T05:40:33.362Z,0.50
2022-10-01T05:44:38.036Z,0.03
2022-10-01T05:48:40.814Z,0.10
2022-10-01T05:52:54.646Z,0.55
2022-10-01T05:56:57.627Z,0.00
2022-10-01T06:01:00.472Z,0.10
2022-10-01T06:05:03.212Z,1.13
2022-10-01T06:09:07.555Z,0.40
2022-10-01T06:13:10.622Z,0.47
2022-10-01T06:17:13.451Z,0.00
2022-10-01T06:21:16.820Z,0.20
2022-10-01T06:25:20.973Z,0.10
2022-10-01T06:29:24.229Z,0.17
2022-10-01T06:33:26.976Z,0.00
2022-10-01T06:37:29.922Z,0.10
2022-10-01T06:41:34.707Z,0.00
2022-10-01T06:45:40.773Z,0.28
2022-10-01T06:49:47.321Z,0.20
2022-10-01T06:53:50.400Z,0.10
2022-10-01T06:57:58.653Z,0.10
2022-10-01T07:02:01.517Z,0.10
2022-10-01T07:06:08.174Z,1.45
2022-10-01T07:10:12.803Z,0.45
2022-10-01T07:14:16.847Z,0.10
2022-10-01T07:18:19.802Z,0.35
2022-10-01T07:22:24.346Z,0.50
2022-10-01T07:26:27.109Z,3.10
2022-10-01T07:30:31.314Z,0.20
2022-10-01T07:34:34.155Z,1.83
2022-10-01T07:38:37.227Z,0.40
2022-10-01T07:42:40.468Z,0.80
2022-10-01T07:46:44.815Z,1.17
2022-10-01T07:50:47.681Z,0.63
2022-10-01T07:54:50.518Z,0.10
2022-10-01T07:58:56.358Z,0.55
2022-10-01T08:03:00.694Z,0.30
2022-10-01T08:07:03.555Z,0.30
2022-10-01T08:11:07.221Z,0.10
2022-10-01T08:15:11.463Z,0.40
2022-10-01T08:19:15.821Z,0.45
2022-10-01T08:23:18.755Z,0.88
2022-10-01T08:27:21.600Z,1.17
2022-10-01T08:31:25.019Z,4.32
2022-10-01T08:35:30.255Z,1.48
2022-10-01T08:39:33.127Z,1.27
2022-10-01T08:43:40.018Z,0.98
2022-10-01T08:47:49.453Z,2.92
2022-10-01T08:51:59.339Z,2.08
2022-10-01T08:56:03.680Z,1.77
2022-10-01T09:00:12.906Z,1.25
2022-10-01T09:04:15.932Z,3.30
2022-10-01T09:08:43.597Z,1.70
2022-10-01T09:12:55.056Z,2.10
2022-10-01T09:17:06.445Z,0.50
2022-10-01T09:21:18.834Z,0.40
2022-10-01T09:25:25.443Z,2.08
2022-10-01T09:29:33.867Z,0.50
2022-10-01T09:33:39.530Z,2.17
2022-10-01T09:37:50.390Z,1.13
2022-10-01T09:41:54.552Z,1.00
2022-10-01T09:45:57.811Z,1.00
2022-10-01T09:50:04.720Z,1.85
2022-10-01T09:54:17.111Z,2.47
2022-10-01T09:58:24.297Z,2.72
2022-10-01T10:02:32.835Z,4.40
2022-10-01T10:06:35.882Z,1.70
2022-10-01T10:10:40.457Z,6.90
2022-10-01T10:14:45.120Z,3.25
2022-10-01T10:18:52.485Z,2.90
2022-10-01T10:22:55.414Z,8.35
2022-10-01T10:26:59.764Z,13.88
2022-10-01T10:31:04.108Z,3.10
2022-10-01T10:35:13.451Z,3.20
2022-10-01T10:39:22.765Z,7.22
2022-10-01T10:43:30.678Z,3.90
2022-10-01T10:47:46.670Z,2.80
2022-10-01T10:51:54.194Z,3.72
2022-10-01T10:55:59.714Z,3.15
2022-10-01T11:00:08.332Z,4.70
2022-10-01T11:04:25.850Z,3.55
2022-10-01T11:08:29.282Z,2.47
2022-10-01T11:12:46.924Z,4.55
2022-10-01T11:17:13.028Z,2.58
2022-10-01T11:21:37.301Z,7.47
2022-10-01T11:25:52.890Z,5.47
2022-10-01T11:30:05.182Z,3.33
2022-10-01T11:34:34.251Z,2.42
2022-10-01T11:38:48.229Z,3.92
2022-10-01T11:42:52.946Z,4.53
2022-10-01T11:47:01.249Z,3.03
2022-10-01T11:51:09.680Z,5.03
2022-10-01T11:55:36.785Z,3.45
2022-10-01T11:59:45.068Z,5.40
2022-10-01T12:04:08.351Z,5.00
2022-10-01T12:08:17.514Z,4.60
2022-10-01T12:12:28.057Z,2.53
2022-10-01T12:16:42.328Z,2.42
2022-10-01T12:20:49.791Z,3.72
2022-10-01T12:24:53.393Z,9.55
2022-10-01T12:29:02.053Z,3.78
2022-10-01T12:33:35.872Z,3.22
2022-10-01T12:37:50.891Z,5.43
2022-10-01T12:42:04.527Z,5.97
2022-10-01T12:46:18.570Z,4.82
2022-10-01T12:50:35.648Z,4.60
2022-10-01T12:55:10.973Z,2.25
2022-10-01T12:59:30.619Z,23.98
2022-10-01T13:03:47.575Z,5.40
2022-10-01T13:08:03.462Z,5.40
2022-10-01T13:12:23.300Z,7.55
2022-10-01T13:16:33.597Z,4.65
2022-10-01T13:20:44.781Z,7.65
2022-10-01T13:24:54.707Z,1.52
2022-10-01T13:29:08.190Z,7.07
2022-10-01T13:33:24.235Z,3.75
2022-10-01T13:37:37.744Z,4.25
2022-10-01T13:41:41.418Z,9.70
2022-10-01T13:45:47.221Z,8.77
2022-10-01T13:49:59.673Z,5.68
2022-10-01T13:54:07.950Z,4.53
2022-10-01T13:58:25.523Z,7.55
2022-10-01T14:02:36.841Z,3.88
2022-10-01T14:06:45.250Z,7.05
2022-10-01T14:11:14.646Z,7.00
2022-10-01T14:15:52.633Z,4.25
2022-10-01T14:19:55.926Z,4.00
2022-10-01T14:24:06.231Z,2.25
2022-10-01T14:28:21.675Z,3.58
2022-10-01T14:32:35.974Z,5.22
2022-10-01T14:36:44.560Z,6.25
2022-10-01T14:40:49.172Z,6.28
2022-10-01T14:44:53.484Z,4.55
2022-10-01T14:49:00.688Z,1.63
2022-10-01T14:53:03.886Z,1.95
2022-10-01T14:57:11.512Z,5.50
2022-10-01T15:01:20.498Z,5.03
2022-10-01T15:05:25.371Z,7.47
2022-10-01T15:09:34.704Z,7.88
2022-10-01T15:13:39.751Z,5.15
2022-10-01T15:17:44.273Z,5.47
2022-10-01T15:21:51.688Z,4.10
2022-10-01T15:25:55.922Z,6.55
2022-10-01T15:29:59.749Z,3.95
2022-10-01T15:34:06.263Z,9.38
2022-10-01T15:38:11.755Z,4.25
2022-10-01T15:42:23.698Z,5.95
2022-10-01T15:46:31.414Z,8.00
2022-10-01T15:50:39.310Z,7.15
2022-10-01T15:54:44.580Z,2.65
2022-10-01T15:58:53.317Z,7.95
2022-10-01T16:02:58.457Z,8.88
2022-10-01T16:07:02.887Z,8.15
2022-10-01T16:11:16.827Z,7.45
2022-10-01T16:15:27.283Z,6.55
2022-10-01T16:19:31.589Z,6.15
2022-10-01T16:23:43.137Z,3.47
2022-10-01T16:27:47.917Z,4.88
2022-10-01T16:31:51.627Z,2.80
2022-10-01T16:36:08.233Z,6.00
2022-10-01T16:40:16.139Z,4.45
2022-10-01T16:44:20.152Z,4.97
2022-10-01T16:48:23.345Z,3.70
2022-10-01T16:52:26.277Z,7.57
2022-10-01T16:56:30.306Z,2.90
2022-10-01T17:00:34.163Z,3.67
2022-10-01T17:04:36.927Z,8.73
2022-10-01T17:08:39.829Z,12.30
2022-10-01T17:12:44.734Z,4.63
2022-10-01T17:16:48.611Z,4.35
2022-10-01T17:20:51.462Z,6.07
2022-10-01T17:24:54.375Z,3.58
2022-10-01T17:28:58.777Z,5.65
2022-10-01T17:33:02.644Z,10.07
2022-10-01T17:37:05.354Z,2.83
2022-10-01T17:41:08.777Z,6.60
2022-10-01T17:45:14.777Z,4.65
2022-10-01T17:49:17.974Z,6.82
2022-10-01T17:53:20.663Z,4.57
2022-10-01T17:57:24.053Z,9.57
2022-10-01T18:01:28.283Z,6.00
2022-10-01T18:05:31.230Z,7.53
2022-10-01T18:09:33.959Z,6.72
2022-10-01T18:13:38.043Z,7.95
2022-10-01T18:17:43.737Z,10.75
2022-10-01T18:21:53.925Z,6.72
2022-10-01T18:25:56.675Z,4.20
2022-10-01T18:29:59.636Z,5.53
2022-10-01T18:34:07.044Z,4.88
2022-10-01T18:38:20.859Z,4.03
2022-10-01T18:42:29.858Z,5.03
2022-10-01T18:46:47.321Z,8.82
2022-10-01T18:50:58.731Z,4.40
2022-10-01T18:55:21.675Z,8.45
2022-10-01T18:59:39.435Z,10.30
2022-10-01T19:04:10.020Z,12.77
2022-10-01T19:08:38.532Z,7.93
2022-10-01T19:12:53.422Z,5.25
2022-10-01T19:17:08.717Z,7.28
2022-10-01T19:21:22.853Z,8.85
2022-10-01T19:25:33.373Z,7.40
2022-10-01T19:29:55.661Z,5.75
2022-10-01T19:34:06.130Z,9.27
2022-10-01T19:38:15.737Z,6.25
2022-10-01T19:42:24.701Z,9.32
2022-10-01T19:46:33.466Z,4.28
2022-10-01T19:50:41.920Z,4.25
2022-10-01T19:54:49.880Z,7.88
2022-10-01T19:58:54.550Z,6.22
2022-10-01T20:03:05.733Z,12.10
2022-10-01T20:07:12.301Z,14.25
2022-10-01T20:11:20.771Z,2.30
2022-10-01T20:15:34.809Z,12.05
2022-10-01T20:19:43.528Z,12.95
2022-10-01T20:23:52.408Z,11.57
2022-10-01T20:28:05.276Z,9.30
2022-10-01T20:32:17.401Z,11.70
2022-10-01T20:36:25.788Z,8.30
2022-10-01T20:40:33.171Z,7.15
2022-10-01T20:44:39.086Z,5.57
2022-10-01T20:48:48.764Z,3.85
2022-10-01T20:53:04.761Z,10.50
2022-10-01T20:57:15.398Z,6.13
2022-10-01T21:01:21.487Z,2.63
2022-10-01T21:05:29.857Z,5.90
2022-10-01T21:09:37.061Z,8.45
2022-10-01T21:13:47.657Z,6.88
2022-10-01T21:18:01.018Z,8.95
2022-10-01T21:22:19.903Z,16.92
2022-10-01T21:26:35.559Z,4.35
2022-10-01T21:30:53.668Z,8.10
2022-10-01T21:35:07.683Z,4.97
2022-10-01T21:39:17.906Z,6.93
2022-10-01T21:43:37.398Z,7.18
2022-10-01T21:48:08.089Z,9.55
2022-10-01T21:52:23.725Z,20.60
2022-10-01T21:56:55.223Z,6.55
2022-10-01T22:01:10.109Z,6.60
2022-10-01T22:05:24.735Z,8.48
2022-10-01T22:09:34.540Z,3.03
2022-10-01T22:13:42.478Z,3.88
2022-10-01T22:17:47.975Z,7.18
2022-10-01T22:21:56.187Z,7.63
2022-10-01T22:26:01.942Z,11.77
2022-10-01T22:30:11.920Z,14.23
2022-10-01T22:34:19.949Z,12.07
2022-10-01T22:38:27.620Z,7.03
2022-10-01T22:42:33.619Z,6.82
2022-10-01T22:46:55.861Z,9.73
2022-10-01T22:51:11.979Z,11.45
2022-10-01T22:55:27.304Z,9.10
2022-10-01T22:59:41.143Z,5.88
2022-10-01T23:03:57.029Z,12.52
2022-10-01T23:08:05.333Z,5.82
2022-10-01T23:12:16.734Z,14.27
2022-10-01T23:16:31.593Z,9.13
2022-10-01T23:20:43.921Z,13.10
2022-10-01T23:25:01.702Z,13.02
2022-10-01T23:29:16.819Z,13.15
2022-10-01T23:33:45.150Z,7.80
2022-10-01T23:38:09.161Z,15.98
2022-10-01T23:42:22.230Z,15.77
2022-10-01T23:46:28.607Z,8.60
2022-10-01T23:50:34.353Z,12.07
2022-10-01T23:54:45.786Z,7.70
2022-10-01T23:58:55.201Z,15.70
